Latest Weather Observations for Victoria River Downs

IDD60801

Issued at 12:31 pm CST Sunday 30 August 2015 (issued every 30 minutes, with the page automatically refreshed every 10 minutes)

About weather observations | Map of weather stations | Latest weather observations for NT | Other Formats
Station Details ID: 014825 Name: VICTORIA RIVER DOWNS Lat: -16.40 Lon: 131.01 Height: 88.5 m
Data from the previous 72 hours. | See also: Recent months at Victoria River Downs
Date/Time
CST
Temp
°C
App
Temp
°C
Dew
Point
Rel
Hum
%
Delta-T
°C
Wind Press
QNH
hPa
Press
MSL
hPa
Rain
since 9 am
mm
Dir
 
Spd
km/h
Gust
km/h
Spd
kts
Gust
kts
30/12:30pm 30.9 28.4 9.7 27 12.0 E 13 28 7 15 1016.5 - 0.0
30/12:00pm 30.1 27.6 9.6 28 11.5 NE 13 24 7 13 1017.3 1017.1 0.0
30/11:30am 29.3 26.7 9.4 29 11.1 E 13 24 7 13 1017.9 - 0.0
30/11:00am 28.9 27.0 10.6 32 10.4 E 11 22 6 12 1018.5 - 0.0
30/10:30am 28.0 24.8 9.8 32 10.2 ENE 17 28 9 15 1018.7 - 0.0
30/10:00am 25.9 25.2 11.3 40 8.3 ENE 6 9 3 5 1018.8 - 0.0
30/09:30am 24.9 24.1 11.8 44 7.5 ESE 7 13 4 7 1018.7 - 0.0
30/09:00am 23.6 24.3 12.3 49 6.4 CALM 0 0 0 0 1018.6 1018.3 0.2
30/08:30am 22.8 23.3 14.1 58 5.1 SSE 4 7 2 4 1018.4 - 0.2
30/08:00am 20.5 21.0 15.1 71 3.2 S 6 9 3 5 1017.9 - 0.2
30/07:30am 17.7 18.2 15.1 85 1.5 SSW 6 7 3 4 1017.5 - 0.2
30/07:00am 16.6 17.4 13.7 83 1.6 S 2 7 1 4 1017.0 - 0.2
30/06:30am 17.0 17.9 13.9 82 1.8 W 2 6 1 3 1016.7 - 0.2
30/06:00am 17.1 17.2 13.8 81 1.9 W 6 7 3 4 1016.4 1016.1 0.2
30/05:30am 17.6 17.8 14.1 80 2.0 WSW 6 7 3 4 1016.0 - 0.2
30/05:00am 18.0 18.5 14.1 78 2.2 WSW 4 6 2 3 1015.7 - 0.2
30/04:30am 18.6 18.6 15.1 80 2.1 WSW 9 13 5 7 1015.4 - 0.2
30/04:00am 17.7 17.3 14.2 80 2.0 NNE 9 11 5 6 1015.0 - 0.2
30/03:30am 18.1 19.4 14.0 77 2.4 CALM 0 0 0 0 1015.3 - 0.2
30/03:00am 18.7 19.9 13.8 73 2.8 CALM 0 0 0 0 1015.7 1015.4 0.2
30/02:30am 20.0 20.6 15.2 74 2.8 ESE 6 7 3 4 1015.9 - 0.2
30/02:00am 20.4 20.9 15.0 71 3.2 S 6 7 3 4 1016.3 - 0.2
30/01:30am 21.4 22.6 15.0 67 3.8 S 2 9 1 5 1016.5 - 0.2
30/01:00am 21.4 21.8 15.3 68 3.6 S 7 9 4 5 1016.9 - 0.2
30/12:30am 22.1 22.4 15.0 64 4.2 S 7 11 4 6 1017.1 - 0.2
30/12:00am 23.0 23.5 15.1 61 4.7 S 6 7 3 4 1017.3 1017.0 0.2
 
Date/Time
CST
Temp
°C
App
Temp
°C
Dew
Point
Rel
Hum
%
Delta-T
°C
Wind Press
QNH
hPa
Press
MSL
hPa
Rain
since 9 am
mm
Dir
 
Spd
km/h
Gust
km/h
Spd
kts
Gust
kts
29/11:30pm 23.0 23.4 15.3 62 4.6 S 7 11 4 6 1017.0 - 0.2
29/11:00pm 23.5 23.9 15.3 60 4.9 S 7 11 4 6 1017.1 - 0.2
29/10:30pm 23.5 23.9 15.3 60 4.9 S 7 9 4 5 1017.1 - 0.2
29/10:00pm 24.0 24.3 15.0 57 5.4 SSE 7 9 4 5 1016.9 - 0.2
29/09:30pm 23.1 24.3 14.9 60 4.9 S 2 7 1 4 1016.8 - 0.2
29/09:00pm 23.6 25.1 14.6 57 5.3 CALM 0 7 0 4 1016.5 1016.2 0.2
29/08:30pm 24.3 25.5 15.0 56 5.6 SW 2 7 1 4 1016.3 - 0.2
29/08:00pm 24.7 24.9 14.8 54 5.9 S 7 9 4 5 1015.9 - 0.2
29/07:30pm 24.9 25.3 14.7 53 6.1 SSW 6 9 3 5 1015.6 - 0.2
29/07:00pm 25.1 25.3 14.8 52 6.2 SSW 7 9 4 5 1015.4 - 0.2
29/06:30pm 25.3 25.4 14.4 50 6.5 SSE 7 11 4 6 1015.1 - 0.2
29/06:00pm 25.4 26.0 15.7 55 5.9 SSE 7 13 4 7 1015.1 1014.6 0.2
29/05:30pm 25.8 26.4 15.2 52 6.4 SW 6 9 3 5 1014.9 - 0.2
29/05:00pm 25.7 25.7 15.1 52 6.4 SW 9 11 5 6 1014.9 - 0.2
29/04:30pm 25.5 25.6 15.5 54 6.1 WSW 9 13 5 7 1014.9 - 0.2
29/04:00pm 25.6 25.6 15.3 53 6.2 SW 9 11 5 6 1015.3 - 0.2
29/03:30pm 25.4 25.0 15.1 53 6.2 S 11 17 6 9 1015.6 - 0.2
29/03:00pm 24.7 24.7 15.3 56 5.7 SW 9 15 5 8 1016.2 1016.0 0.2
29/02:30pm 23.9 24.1 15.7 60 5.0 SW 9 13 5 7 1016.6 - 0.2
29/02:00pm 23.8 23.3 14.8 57 5.4 S 11 17 6 9 1017.2 - 0.2
29/01:30pm 23.3 22.8 14.8 59 5.1 S 11 17 6 9 1017.7 - 0.2
29/01:00pm 23.0 22.4 14.6 59 5.0 S 11 15 6 8 1018.2 - 0.2
29/12:30pm 23.6 22.4 14.0 55 5.7 S 13 20 7 11 1018.6 - 0.2
29/12:00pm 24.1 23.2 13.6 52 6.1 SSE 11 15 6 8 1019.0 1018.8 0.2
29/11:30am 24.3 24.3 14.1 53 6.0 S 7 13 4 7 1019.7 - 0.2
29/11:00am 23.1 22.4 13.3 54 5.7 S 9 13 5 7 1020.1 - 0.0
29/10:30am 23.5 22.5 14.5 57 5.3 S 13 19 7 10 1020.3 - 0.0
29/10:00am 22.9 22.1 13.9 57 5.3 S 11 19 6 10 1020.5 - 0.0
29/09:30am 22.2 21.8 14.1 60 4.7 SSE 9 15 5 8 1020.3 - 0.0
29/09:00am 21.8 21.6 14.7 64 4.2 SSW 9 13 5 7 1019.9 - 1.4
29/08:30am 20.3 20.2 14.9 71 3.2 S 9 13 5 7 1019.5 - 1.4
29/08:00am 20.1 20.4 14.9 72 3.1 SE 7 9 4 5 1018.8 - 1.4
29/07:30am 19.0 19.6 15.9 82 1.8 ESE 7 11 4 6 1018.4 - 1.4
29/07:00am 18.3 20.3 15.9 86 1.4 CALM 0 0 0 0 1018.2 - 1.4
29/06:30am 18.5 20.3 15.6 83 1.7 CALM 0 0 0 0 1018.0 - 1.4
29/06:00am 18.7 19.2 15.6 82 1.8 E 7 9 4 5 1017.6 1017.3 1.4
29/05:30am 18.7 19.1 15.4 81 1.9 SE 7 9 4 5 1017.5 - 1.4
29/05:00am 18.8 18.4 15.3 80 2.1 SE 11 17 6 9 1017.3 - 1.4
29/04:30am 18.7 18.8 15.4 81 1.9 SSE 9 19 5 10 1017.3 - 1.4
29/04:00am 18.6 17.4 15.1 80 2.1 SSE 15 20 8 11 1017.0 - 1.4
29/03:30am 20.9 18.4 13.6 63 4.2 S 19 30 10 16 1017.7 - 0.0
29/03:00am 21.7 19.4 13.1 58 4.9 S 17 26 9 14 1017.3 1017.1 0.0
29/02:30am 22.1 19.5 13.2 57 5.1 S 19 32 10 17 1017.6 - 0.0
29/02:00am 22.8 21.0 13.3 55 5.5 SSE 15 26 8 14 1017.8 - 0.0
29/01:30am 23.3 21.7 12.9 52 6.0 S 13 24 7 13 1017.7 - 0.0
29/01:00am 23.7 22.1 12.7 50 6.3 S 13 19 7 10 1017.6 - 0.0
29/12:30am 23.5 22.7 12.8 51 6.2 S 9 11 5 6 1017.8 - 0.0
29/12:00am 24.0 23.1 12.6 49 6.6 SE 9 11 5 6 1017.3 1016.9 0.0
 
Date/Time
CST
Temp
°C
App
Temp
°C
Dew
Point
Rel
Hum
%
Delta-T
°C
Wind Press
QNH
hPa
Press
MSL
hPa
Rain
since 9 am
mm
Dir
 
Spd
km/h
Gust
km/h
Spd
kts
Gust
kts
28/11:30pm 24.3 23.0 12.6 48 6.7 SSE 11 15 6 8 1016.7 - 0.0
28/11:00pm 25.0 22.3 11.6 43 7.6 SSE 17 26 9 14 1016.7 - 0.0
28/10:30pm 25.6 23.3 11.7 42 7.9 SSE 15 22 8 12 1016.4 - 0.0
28/10:00pm 26.2 23.8 11.5 40 8.4 SSE 15 26 8 14 1016.1 - 0.0
28/09:30pm 26.8 24.1 11.7 39 8.7 SSE 17 26 9 14 1015.5 - 0.0
28/09:00pm 27.7 25.6 12.5 39 8.9 SSE 15 26 8 14 1015.0 1014.6 0.0
28/08:30pm 28.1 25.7 12.8 38 9.0 SSE 17 30 9 16 1014.6 - 0.0
28/08:00pm 29.0 26.5 13.6 38 9.2 SSE 19 33 10 18 1014.0 - 0.0
28/07:30pm 29.1 30.4 14.1 40 9.0 CALM 0 0 0 0 1013.1 - 0.0
28/07:00pm 30.3 30.1 13.1 34 10.3 SE 6 7 3 4 1012.8 - 0.0
28/06:30pm 31.5 31.4 13.3 33 10.9 SE 6 7 3 4 1012.4 - 0.0
28/06:00pm 32.8 33.1 13.4 30 11.7 E 4 9 2 5 1012.2 1011.8 0.0
28/05:30pm 33.2 33.2 14.3 32 11.6 SE 7 9 4 5 1012.0 - 0.0
28/05:00pm 32.9 33.1 13.0 30 12.0 N 4 7 2 4 1012.0 - 0.0
28/04:30pm 33.0 33.0 13.6 31 11.8 ENE 6 7 3 4 1012.1 - 0.0
28/04:00pm 32.6 32.3 13.3 31 11.7 NNE 7 11 4 6 1012.2 - 0.0
28/03:30pm 33.4 33.3 14.0 31 11.9 NE 7 9 4 5 1012.4 - 0.0
28/03:00pm 33.9 32.5 13.4 29 12.5 NE 13 20 7 11 1012.8 1012.4 0.0
28/02:30pm 32.4 30.7 13.6 32 11.4 NNE 15 24 8 13 1013.2 - 0.0
28/02:00pm 33.2 31.6 13.8 31 11.8 NE 15 22 8 12 1013.8 - 0.0
28/01:30pm 32.4 30.9 14.1 33 11.2 NE 15 26 8 14 1014.5 - 0.0
28/01:00pm 32.0 30.1 14.2 34 10.9 NE 17 28 9 15 1015.2 - 0.0
28/12:30pm 31.6 29.2 13.8 34 10.8 NNE 19 30 10 16 1015.8 - 0.0
28/12:00pm 31.8 32.1 14.9 36 10.4 ENE 7 24 4 13 1016.5 1016.3 0.0
28/11:30am 29.7 28.5 13.9 38 9.5 ENE 13 22 7 12 1017.1 - 0.0
28/11:00am 29.9 29.1 15.2 41 9.0 E 13 19 7 10 1017.5 - 0.0
28/10:30am 28.3 27.3 14.5 43 8.3 E 13 24 7 13 1018.0 - 0.0
28/10:00am 27.6 26.0 13.9 43 8.2 E 15 26 8 14 1018.2 - 0.0
28/09:30am 26.9 24.9 14.0 45 7.7 ENE 17 20 9 11 1018.2 - 0.0
28/09:00am 25.8 24.4 14.6 50 6.7 E 15 20 8 11 1017.9 1017.6 0.0
28/08:30am 24.5 23.7 14.0 52 6.2 SE 11 15 6 8 1017.7 - 0.0
28/08:00am 23.7 23.4 14.4 56 5.5 SE 9 15 5 8 1017.4 - 0.0
28/07:30am 22.0 22.0 14.1 61 4.6 SSE 7 9 4 5 1016.9 - 0.0
28/07:00am 21.8 21.8 13.7 60 4.7 SE 6 9 3 5 1016.6 - 0.0
28/06:30am 22.5 22.0 13.8 58 5.1 SE 9 13 5 7 1016.2 - 0.0
28/06:00am 22.9 - 13.9 57 5.3 - - - - - 1015.8 1015.5 0.0
28/05:30am 23.3 - 14.0 56 5.5 - - - - - 1015.5 - 0.0
28/05:00am 23.4 23.0 14.1 56 5.5 SE 9 13 5 7 1015.4 - 0.0
28/04:30am 23.7 22.8 13.8 53 5.8 SE 11 15 6 8 1015.3 - 0.0
28/04:00am 24.4 23.9 13.9 52 6.2 SE 9 13 5 7 1015.0 - 0.0
28/03:30am 25.3 24.9 14.1 50 6.7 ESE 9 11 5 6 1014.8 - 0.0
28/03:00am 25.4 25.0 14.2 50 6.7 E 9 15 5 8 1014.9 1014.5 0.0
28/02:30am 25.0 25.0 14.2 51 6.4 ESE 7 11 4 6 1014.8 - 0.0
28/02:00am 26.1 25.6 13.9 47 7.2 E 9 11 5 6 1014.7 - 0.0
28/01:30am 26.3 26.2 13.8 46 7.4 ESE 7 9 4 5 1015.0 - 0.0
28/01:00am 27.1 26.5 13.4 42 8.1 E 9 13 5 7 1015.2 - 0.0
28/12:30am 27.9 27.3 13.4 40 8.6 E 9 15 5 8 1015.1 - 0.0
28/12:00am 28.1 27.7 14.0 42 8.5 ESE 9 13 5 7 1015.0 1014.6 0.0
 
Date/Time
CST
Temp
°C
App
Temp
°C
Dew
Point
Rel
Hum
%
Delta-T
°C
Wind Press
QNH
hPa
Press
MSL
hPa
Rain
since 9 am
mm
Dir
 
Spd
km/h
Gust
km/h
Spd
kts
Gust
kts
27/11:30pm 28.2 27.7 14.8 44 8.1 ESE 11 17 6 9 1014.8 - 0.0
27/11:00pm 28.4 28.3 15.0 44 8.2 SE 9 13 5 7 1014.9 - 0.0
27/10:30pm 28.5 28.1 15.1 44 8.2 E 11 17 6 9 1014.9 - 0.0
27/10:00pm 28.8 28.2 14.6 42 8.6 SSE 11 15 6 8 1014.6 - 0.0
27/09:30pm 29.0 28.6 14.0 39 9.0 SSE 9 15 5 8 1014.3 - 0.0
27/09:00pm 27.0 27.7 12.3 40 8.5 CALM 0 0 0 0 1014.0 1013.4 0.0
27/08:30pm 27.2 28.0 12.4 40 8.6 CALM 0 0 0 0 1013.6 - 0.0
27/08:00pm 28.1 28.9 12.4 37 9.2 CALM 0 0 0 0 1013.3 - 0.0
27/07:30pm 29.4 29.9 11.5 33 10.4 CALM 0 0 0 0 1012.7 - 0.0
27/07:00pm 30.4 31.0 11.9 32 10.8 CALM 0 0 0 0 1012.4 - 0.0
27/06:30pm 32.6 33.0 11.2 27 12.5 CALM 0 0 0 0 1012.2 - 0.0
27/06:00pm 34.1 33.4 11.3 25 13.4 SW 6 9 3 5 1012.0 1011.6 0.0
27/05:30pm 35.1 34.1 10.9 23 14.2 W 7 11 4 6 1012.0 - 0.0
27/05:00pm 34.6 33.3 11.1 24 13.8 NW 9 15 5 8 1011.9 - 0.0
27/04:30pm 34.4 33.0 10.9 24 13.8 W 9 15 5 8 1011.7 - 0.0
27/04:00pm 34.6 32.7 10.4 23 14.1 SE 11 15 6 8 1011.8 - 0.0
27/03:30pm 34.6 33.6 11.1 24 13.8 ESE 7 11 4 6 1012.0 - 0.0
27/03:00pm 34.7 33.2 10.5 23 14.1 N 9 17 5 9 1012.4 1012.0 0.0
27/02:30pm 33.8 31.9 10.4 24 13.6 NE 11 15 6 8 1012.8 - 0.0
27/02:00pm 33.2 31.7 10.5 25 13.2 SSE 9 13 5 7 1013.3 - 0.0
27/01:30pm 32.9 30.7 10.9 26 12.8 ENE 13 17 7 9 1013.9 - 0.0
27/01:00pm 32.6 30.9 11.2 27 12.5 ENE 11 20 6 11 1014.3 - 0.0

Other Formats:

Comma delimited format used in spreadsheet applications
http://www.bom.gov.au/fwo/IDD60801/IDD60801.94232.axf

JavaScript Object Notation format (JSON) in row-major order
http://www.bom.gov.au/fwo/IDD60801/IDD60801.94232.json